sensor_id;sensor_type;location;lat;lon;timestamp;P1;durP1;ratioP1;P2;durP2;ratioP2
11681;SDS011;5897;42.640;23.310;2023-12-20T00:00:08;36.80;;;22.33;;
11681;SDS011;5897;42.640;23.310;2023-12-20T00:02:37;29.90;;;18.90;;
11681;SDS011;5897;42.640;23.310;2023-12-20T00:05:10;28.57;;;18.83;;
11681;SDS011;5897;42.640;23.310;2023-12-20T00:07:36;23.83;;;15.97;;
11681;SDS011;5897;42.640;23.310;2023-12-20T00:10:03;25.47;;;18.10;;
11681;SDS011;5897;42.640;23.310;2023-12-20T00:12:36;24.50;;;18.47;;
11681;SDS011;5897;42.640;23.310;2023-12-20T00:15:06;23.00;;;16.57;;
11681;SDS011;5897;42.640;23.310;2023-12-20T00:17:36;25.23;;;18.07;;
11681;SDS011;5897;42.640;23.310;2023-12-20T00:20:08;28.13;;;20.00;;
11681;SDS011;5897;42.640;23.310;2023-12-20T00:22:44;29.93;;;20.90;;
11681;SDS011;5897;42.640;23.310;2023-12-20T00:25:10;23.97;;;17.67;;
11681;SDS011;5897;42.640;23.310;2023-12-20T00:27:46;27.60;;;19.33;;
11681;SDS011;5897;42.640;23.310;2023-12-20T00:30:19;24.80;;;18.63;;
11681;SDS011;5897;42.640;23.310;2023-12-20T00:32:51;21.20;;;14.07;;
11681;SDS011;5897;42.640;23.310;2023-12-20T00:35:20;21.23;;;14.20;;
11681;SDS011;5897;42.640;23.310;2023-12-20T00:37:47;21.33;;;13.17;;
11681;SDS011;5897;42.640;23.310;2023-12-20T00:40:14;19.50;;;11.83;;
11681;SDS011;5897;42.640;23.310;2023-12-20T00:42:40;16.50;;;10.70;;
11681;SDS011;5897;42.640;23.310;2023-12-20T00:45:09;24.87;;;15.57;;
11681;SDS011;5897;42.640;23.310;2023-12-20T00:47:37;27.30;;;15.37;;
11681;SDS011;5897;42.640;23.310;2023-12-20T00:50:07;26.33;;;14.50;;
11681;SDS011;5897;42.640;23.310;2023-12-20T00:52:36;22.10;;;14.30;;
11681;SDS011;5897;42.640;23.310;2023-12-20T00:55:03;24.47;;;15.50;;
11681;SDS011;5897;42.640;23.310;2023-12-20T00:57:32;18.70;;;13.63;;
11681;SDS011;5897;42.640;23.310;2023-12-20T00:59:59;20.40;;;14.13;;
11681;SDS011;5897;42.640;23.310;2023-12-20T01:02:27;24.03;;;16.23;;
11681;SDS011;5897;42.640;23.310;2023-12-20T01:04:59;22.43;;;16.30;;
11681;SDS011;5897;42.640;23.310;2023-12-20T01:07:32;21.87;;;15.53;;
11681;SDS011;5897;42.640;23.310;2023-12-20T01:09:58;21.37;;;14.50;;
11681;SDS011;5897;42.640;23.310;2023-12-20T01:12:25;18.90;;;14.50;;
11681;SDS011;5897;42.640;23.310;2023-12-20T01:14:55;21.93;;;15.60;;
11681;SDS011;5897;42.640;23.310;2023-12-20T01:17:22;21.10;;;15.93;;
11681;SDS011;5897;42.640;23.310;2023-12-20T01:19:53;19.73;;;13.83;;
11681;SDS011;5897;42.640;23.310;2023-12-20T01:22:25;17.07;;;12.93;;
11681;SDS011;5897;42.640;23.310;2023-12-20T01:24:55;18.27;;;12.70;;
11681;SDS011;5897;42.640;23.310;2023-12-20T01:27:24;18.00;;;12.37;;
11681;SDS011;5897;42.640;23.310;2023-12-20T01:29:56;23.43;;;14.97;;
11681;SDS011;5897;42.640;23.310;2023-12-20T01:32:22;18.27;;;12.47;;
11681;SDS011;5897;42.640;23.310;2023-12-20T01:34:50;17.20;;;13.73;;
11681;SDS011;5897;42.640;23.310;2023-12-20T01:37:17;19.37;;;14.60;;
11681;SDS011;5897;42.640;23.310;2023-12-20T01:39:45;25.83;;;19.60;;
11681;SDS011;5897;42.640;23.310;2023-12-20T01:42:15;26.27;;;18.53;;
11681;SDS011;5897;42.640;23.310;2023-12-20T01:44:45;26.53;;;18.27;;
11681;SDS011;5897;42.640;23.310;2023-12-20T01:47:16;22.20;;;17.47;;
11681;SDS011;5897;42.640;23.310;2023-12-20T01:49:46;23.03;;;16.40;;
11681;SDS011;5897;42.640;23.310;2023-12-20T01:52:15;22.97;;;17.53;;
11681;SDS011;5897;42.640;23.310;2023-12-20T01:54:45;25.80;;;17.87;;
11681;SDS011;5897;42.640;23.310;2023-12-20T01:57:16;22.43;;;16.23;;
11681;SDS011;5897;42.640;23.310;2023-12-20T01:59:45;26.53;;;19.43;;
11681;SDS011;5897;42.640;23.310;2023-12-20T02:02:13;25.77;;;19.47;;
11681;SDS011;5897;42.640;23.310;2023-12-20T02:04:45;23.97;;;18.20;;
11681;SDS011;5897;42.640;23.310;2023-12-20T02:07:17;20.03;;;13.83;;
11681;SDS011;5897;42.640;23.310;2023-12-20T02:09:52;18.37;;;12.90;;
11681;SDS011;5897;42.640;23.310;2023-12-20T02:12:18;20.50;;;14.07;;
11681;SDS011;5897;42.640;23.310;2023-12-20T02:14:46;19.67;;;14.10;;
11681;SDS011;5897;42.640;23.310;2023-12-20T02:17:13;20.97;;;14.60;;
11681;SDS011;5897;42.640;23.310;2023-12-20T02:19:45;19.90;;;14.30;;
11681;SDS011;5897;42.640;23.310;2023-12-20T02:22:14;20.97;;;15.87;;
11681;SDS011;5897;42.640;23.310;2023-12-20T02:24:41;28.17;;;19.37;;
11681;SDS011;5897;42.640;23.310;2023-12-20T02:27:12;26.30;;;20.00;;
11681;SDS011;5897;42.640;23.310;2023-12-20T02:29:52;19.83;;;14.80;;
11681;SDS011;5897;42.640;23.310;2023-12-20T02:32:20;21.77;;;15.50;;
11681;SDS011;5897;42.640;23.310;2023-12-20T02:34:51;20.07;;;13.30;;
11681;SDS011;5897;42.640;23.310;2023-12-20T02:37:19;18.90;;;13.27;;
11681;SDS011;5897;42.640;23.310;2023-12-20T02:39:48;19.83;;;13.70;;
11681;SDS011;5897;42.640;23.310;2023-12-20T02:42:15;19.87;;;14.93;;
11681;SDS011;5897;42.640;23.310;2023-12-20T02:44:42;17.30;;;12.27;;
11681;SDS011;5897;42.640;23.310;2023-12-20T02:47:11;16.87;;;12.53;;
11681;SDS011;5897;42.640;23.310;2023-12-20T02:49:37;20.17;;;14.00;;
11681;SDS011;5897;42.640;23.310;2023-12-20T02:52:04;17.27;;;12.67;;
11681;SDS011;5897;42.640;23.310;2023-12-20T02:54:45;17.13;;;12.57;;
11681;SDS011;5897;42.640;23.310;2023-12-20T02:57:12;22.73;;;17.27;;
11681;SDS011;5897;42.640;23.310;2023-12-20T02:59:44;25.20;;;19.13;;
11681;SDS011;5897;42.640;23.310;2023-12-20T03:02:13;27.00;;;19.23;;
11681;SDS011;5897;42.640;23.310;2023-12-20T03:04:40;31.63;;;22.07;;
11681;SDS011;5897;42.640;23.310;2023-12-20T03:07:08;26.50;;;20.17;;
11681;SDS011;5897;42.640;23.310;2023-12-20T03:09:37;24.83;;;19.43;;
11681;SDS011;5897;42.640;23.310;2023-12-20T03:12:05;22.67;;;17.27;;
11681;SDS011;5897;42.640;23.310;2023-12-20T03:14:32;26.70;;;17.63;;
11681;SDS011;5897;42.640;23.310;2023-12-20T03:16:58;19.10;;;13.17;;
11681;SDS011;5897;42.640;23.310;2023-12-20T03:19:25;28.50;;;19.13;;
11681;SDS011;5897;42.640;23.310;2023-12-20T03:21:51;21.63;;;16.80;;
11681;SDS011;5897;42.640;23.310;2023-12-20T03:24:19;22.43;;;16.00;;
11681;SDS011;5897;42.640;23.310;2023-12-20T03:26:45;21.77;;;16.00;;
11681;SDS011;5897;42.640;23.310;2023-12-20T03:29:21;22.83;;;17.90;;
11681;SDS011;5897;42.640;23.310;2023-12-20T03:31:47;15.67;;;11.63;;
11681;SDS011;5897;42.640;23.310;2023-12-20T03:34:18;15.23;;;12.00;;
11681;SDS011;5897;42.640;23.310;2023-12-20T03:36:45;40.63;;;29.90;;
11681;SDS011;5897;42.640;23.310;2023-12-20T03:39:15;14.17;;;11.00;;
11681;SDS011;5897;42.640;23.310;2023-12-20T03:41:44;20.40;;;18.13;;
11681;SDS011;5897;42.640;23.310;2023-12-20T03:44:13;11.07;;;8.10;;
11681;SDS011;5897;42.640;23.310;2023-12-20T03:46:49;9.67;;;7.50;;
11681;SDS011;5897;42.640;23.310;2023-12-20T03:49:17;10.63;;;9.13;;
11681;SDS011;5897;42.640;23.310;2023-12-20T03:51:46;11.50;;;9.57;;
11681;SDS011;5897;42.640;23.310;2023-12-20T03:54:15;13.47;;;10.30;;
11681;SDS011;5897;42.640;23.310;2023-12-20T03:56:42;14.87;;;9.83;;
11681;SDS011;5897;42.640;23.310;2023-12-20T03:59:11;15.10;;;12.10;;
11681;SDS011;5897;42.640;23.310;2023-12-20T04:01:38;18.80;;;13.43;;
11681;SDS011;5897;42.640;23.310;2023-12-20T04:04:11;26.70;;;19.00;;
11681;SDS011;5897;42.640;23.310;2023-12-20T04:06:41;26.57;;;18.73;;
11681;SDS011;5897;42.640;23.310;2023-12-20T04:09:08;23.83;;;16.50;;
11681;SDS011;5897;42.640;23.310;2023-12-20T04:11:38;21.50;;;15.83;;
11681;SDS011;5897;42.640;23.310;2023-12-20T04:14:09;27.03;;;19.30;;
11681;SDS011;5897;42.640;23.310;2023-12-20T04:16:35;33.03;;;22.00;;
11681;SDS011;5897;42.640;23.310;2023-12-20T04:19:02;25.07;;;17.30;;
11681;SDS011;5897;42.640;23.310;2023-12-20T04:21:32;64.90;;;29.20;;
11681;SDS011;5897;42.640;23.310;2023-12-20T04:23:59;46.47;;;28.33;;
11681;SDS011;5897;42.640;23.310;2023-12-20T04:26:25;35.97;;;26.83;;
11681;SDS011;5897;42.640;23.310;2023-12-20T04:28:52;26.00;;;17.80;;
11681;SDS011;5897;42.640;23.310;2023-12-20T04:31:22;29.40;;;22.93;;
11681;SDS011;5897;42.640;23.310;2023-12-20T04:33:48;25.17;;;17.63;;
11681;SDS011;5897;42.640;23.310;2023-12-20T04:36:15;17.23;;;13.07;;
11681;SDS011;5897;42.640;23.310;2023-12-20T04:38:43;17.80;;;13.90;;
11681;SDS011;5897;42.640;23.310;2023-12-20T04:41:10;19.47;;;15.90;;
11681;SDS011;5897;42.640;23.310;2023-12-20T04:43:43;16.77;;;11.87;;
11681;SDS011;5897;42.640;23.310;2023-12-20T04:46:14;43.50;;;18.83;;
11681;SDS011;5897;42.640;23.310;2023-12-20T04:48:43;89.33;;;33.77;;
11681;SDS011;5897;42.640;23.310;2023-12-20T04:51:12;56.57;;;32.73;;
11681;SDS011;5897;42.640;23.310;2023-12-20T04:53:47;60.53;;;25.33;;
11681;SDS011;5897;42.640;23.310;2023-12-20T04:56:19;60.33;;;25.43;;
11681;SDS011;5897;42.640;23.310;2023-12-20T04:58:51;45.83;;;21.23;;
11681;SDS011;5897;42.640;23.310;2023-12-20T05:01:19;37.73;;;19.70;;
11681;SDS011;5897;42.640;23.310;2023-12-20T05:03:48;33.37;;;19.43;;
11681;SDS011;5897;42.640;23.310;2023-12-20T05:06:15;26.77;;;16.93;;
11681;SDS011;5897;42.640;23.310;2023-12-20T05:08:45;16.30;;;10.37;;
11681;SDS011;5897;42.640;23.310;2023-12-20T05:11:12;20.27;;;12.03;;
11681;SDS011;5897;42.640;23.310;2023-12-20T05:13:43;48.00;;;23.13;;
11681;SDS011;5897;42.640;23.310;2023-12-20T05:16:12;47.13;;;23.77;;
11681;SDS011;5897;42.640;23.310;2023-12-20T05:18:47;57.20;;;28.00;;
11681;SDS011;5897;42.640;23.310;2023-12-20T05:21:23;57.83;;;28.70;;
11681;SDS011;5897;42.640;23.310;2023-12-20T05:23:53;46.83;;;24.53;;
11681;SDS011;5897;42.640;23.310;2023-12-20T05:26:20;46.87;;;25.43;;
11681;SDS011;5897;42.640;23.310;2023-12-20T05:28:49;56.93;;;29.77;;
11681;SDS011;5897;42.640;23.310;2023-12-20T05:31:16;55.97;;;28.40;;
11681;SDS011;5897;42.640;23.310;2023-12-20T05:33:45;42.30;;;24.73;;
11681;SDS011;5897;42.640;23.310;2023-12-20T05:36:20;43.03;;;22.50;;
11681;SDS011;5897;42.640;23.310;2023-12-20T05:38:49;37.53;;;21.57;;
11681;SDS011;5897;42.640;23.310;2023-12-20T05:41:20;34.57;;;20.90;;
11681;SDS011;5897;42.640;23.310;2023-12-20T05:43:48;32.33;;;19.83;;
11681;SDS011;5897;42.640;23.310;2023-12-20T05:46:17;27.47;;;19.17;;
11681;SDS011;5897;42.640;23.310;2023-12-20T05:48:44;33.87;;;20.90;;
11681;SDS011;5897;42.640;23.310;2023-12-20T05:51:11;36.50;;;22.70;;
11681;SDS011;5897;42.640;23.310;2023-12-20T05:53:38;35.87;;;24.17;;
11681;SDS011;5897;42.640;23.310;2023-12-20T05:56:06;42.37;;;28.40;;
11681;SDS011;5897;42.640;23.310;2023-12-20T05:58:38;39.17;;;26.20;;
11681;SDS011;5897;42.640;23.310;2023-12-20T06:01:08;40.57;;;29.07;;
11681;SDS011;5897;42.640;23.310;2023-12-20T06:03:41;43.87;;;27.83;;
11681;SDS011;5897;42.640;23.310;2023-12-20T06:06:15;37.83;;;27.03;;
11681;SDS011;5897;42.640;23.310;2023-12-20T06:08:45;39.50;;;27.37;;
11681;SDS011;5897;42.640;23.310;2023-12-20T06:11:12;37.63;;;27.00;;
11681;SDS011;5897;42.640;23.310;2023-12-20T06:13:41;45.63;;;31.20;;
11681;SDS011;5897;42.640;23.310;2023-12-20T06:16:13;55.07;;;33.73;;
11681;SDS011;5897;42.640;23.310;2023-12-20T06:18:40;51.83;;;32.47;;
11681;SDS011;5897;42.640;23.310;2023-12-20T06:21:08;53.33;;;33.80;;
11681;SDS011;5897;42.640;23.310;2023-12-20T06:23:37;65.17;;;41.20;;
11681;SDS011;5897;42.640;23.310;2023-12-20T06:26:04;52.17;;;33.97;;
11681;SDS011;5897;42.640;23.310;2023-12-20T06:28:31;53.17;;;33.17;;
11681;SDS011;5897;42.640;23.310;2023-12-20T06:31:00;52.83;;;36.43;;
11681;SDS011;5897;42.640;23.310;2023-12-20T06:33:28;52.33;;;34.67;;
11681;SDS011;5897;42.640;23.310;2023-12-20T06:35:56;57.60;;;37.63;;
11681;SDS011;5897;42.640;23.310;2023-12-20T06:38:25;52.13;;;36.03;;
11681;SDS011;5897;42.640;23.310;2023-12-20T06:40:52;65.97;;;42.67;;
11681;SDS011;5897;42.640;23.310;2023-12-20T06:43:28;67.30;;;43.77;;
11681;SDS011;5897;42.640;23.310;2023-12-20T06:45:55;68.87;;;44.10;;
11681;SDS011;5897;42.640;23.310;2023-12-20T06:48:23;72.27;;;46.37;;
11681;SDS011;5897;42.640;23.310;2023-12-20T06:50:55;71.07;;;46.33;;
11681;SDS011;5897;42.640;23.310;2023-12-20T06:53:27;69.73;;;47.10;;
11681;SDS011;5897;42.640;23.310;2023-12-20T06:55:54;66.90;;;45.37;;
11681;SDS011;5897;42.640;23.310;2023-12-20T06:58:23;65.67;;;45.20;;
11681;SDS011;5897;42.640;23.310;2023-12-20T07:00:55;71.10;;;48.67;;
11681;SDS011;5897;42.640;23.310;2023-12-20T07:03:25;68.80;;;47.93;;
11681;SDS011;5897;42.640;23.310;2023-12-20T07:05:52;51.03;;;35.60;;
11681;SDS011;5897;42.640;23.310;2023-12-20T07:08:23;69.25;;;50.35;;
11681;SDS011;5897;42.640;23.310;2023-12-20T07:10:50;64.22;;;47.15;;
11681;SDS011;5897;42.640;23.310;2023-12-20T07:16:08;68.82;;;48.40;;
11681;SDS011;5897;42.640;23.310;2023-12-20T07:18:40;67.57;;;48.85;;
11681;SDS011;5897;42.640;23.310;2023-12-20T07:21:10;74.63;;;50.83;;
11681;SDS011;5897;42.640;23.310;2023-12-20T07:23:40;70.55;;;50.63;;
11681;SDS011;5897;42.640;23.310;2023-12-20T07:26:09;73.00;;;50.08;;
11681;SDS011;5897;42.640;23.310;2023-12-20T07:28:40;75.05;;;49.38;;
11681;SDS011;5897;42.640;23.310;2023-12-20T07:31:07;67.95;;;48.38;;
11681;SDS011;5897;42.640;23.310;2023-12-20T07:33:34;73.60;;;51.83;;
11681;SDS011;5897;42.640;23.310;2023-12-20T07:36:11;73.07;;;51.20;;
11681;SDS011;5897;42.640;23.310;2023-12-20T07:38:40;68.63;;;48.70;;
11681;SDS011;5897;42.640;23.310;2023-12-20T07:41:10;71.93;;;51.00;;
11681;SDS011;5897;42.640;23.310;2023-12-20T07:43:41;72.82;;;50.20;;
11681;SDS011;5897;42.640;23.310;2023-12-20T07:46:09;69.97;;;49.72;;
11681;SDS011;5897;42.640;23.310;2023-12-20T07:48:41;73.72;;;53.10;;
11681;SDS011;5897;42.640;23.310;2023-12-20T07:51:12;74.37;;;52.20;;
11681;SDS011;5897;42.640;23.310;2023-12-20T07:53:41;74.10;;;54.72;;
11681;SDS011;5897;42.640;23.310;2023-12-20T07:56:17;77.88;;;55.97;;
11681;SDS011;5897;42.640;23.310;2023-12-20T07:58:47;82.15;;;58.35;;
11681;SDS011;5897;42.640;23.310;2023-12-20T08:01:16;82.35;;;58.40;;
11681;SDS011;5897;42.640;23.310;2023-12-20T08:03:49;77.97;;;55.57;;
11681;SDS011;5897;42.640;23.310;2023-12-20T08:06:17;75.43;;;56.63;;
11681;SDS011;5897;42.640;23.310;2023-12-20T08:08:48;74.65;;;55.25;;
11681;SDS011;5897;42.640;23.310;2023-12-20T08:11:15;76.50;;;55.15;;
11681;SDS011;5897;42.640;23.310;2023-12-20T08:13:42;77.93;;;57.53;;
11681;SDS011;5897;42.640;23.310;2023-12-20T08:16:13;79.78;;;57.33;;
11681;SDS011;5897;42.640;23.310;2023-12-20T08:18:42;75.50;;;57.80;;
11681;SDS011;5897;42.640;23.310;2023-12-20T08:21:09;79.25;;;56.85;;
11681;SDS011;5897;42.640;23.310;2023-12-20T08:23:43;78.53;;;57.05;;
11681;SDS011;5897;42.640;23.310;2023-12-20T08:26:12;76.75;;;57.15;;
11681;SDS011;5897;42.640;23.310;2023-12-20T08:28:39;78.35;;;55.92;;
11681;SDS011;5897;42.640;23.310;2023-12-20T08:31:09;76.00;;;55.85;;
11681;SDS011;5897;42.640;23.310;2023-12-20T08:33:42;73.35;;;57.65;;
11681;SDS011;5897;42.640;23.310;2023-12-20T08:36:11;77.65;;;56.28;;
11681;SDS011;5897;42.640;23.310;2023-12-20T08:38:47;77.93;;;57.00;;
11681;SDS011;5897;42.640;23.310;2023-12-20T08:41:16;78.22;;;58.58;;
11681;SDS011;5897;42.640;23.310;2023-12-20T08:43:43;80.40;;;58.13;;
11681;SDS011;5897;42.640;23.310;2023-12-20T08:46:13;79.60;;;57.15;;
11681;SDS011;5897;42.640;23.310;2023-12-20T08:48:41;79.68;;;57.97;;
11681;SDS011;5897;42.640;23.310;2023-12-20T08:51:07;80.43;;;59.40;;
11681;SDS011;5897;42.640;23.310;2023-12-20T08:53:39;82.30;;;60.22;;
11681;SDS011;5897;42.640;23.310;2023-12-20T08:56:11;80.28;;;58.30;;
11681;SDS011;5897;42.640;23.310;2023-12-20T08:58:38;87.45;;;62.28;;
11681;SDS011;5897;42.640;23.310;2023-12-20T09:01:07;87.15;;;60.92;;
11681;SDS011;5897;42.640;23.310;2023-12-20T09:03:36;87.45;;;61.20;;
11681;SDS011;5897;42.640;23.310;2023-12-20T09:06:03;84.80;;;60.08;;
11681;SDS011;5897;42.640;23.310;2023-12-20T09:08:33;88.35;;;61.35;;
11681;SDS011;5897;42.640;23.310;2023-12-20T09:11:05;95.32;;;63.03;;
11681;SDS011;5897;42.640;23.310;2023-12-20T09:13:39;91.75;;;61.88;;
11681;SDS011;5897;42.640;23.310;2023-12-20T09:16:09;94.68;;;64.07;;
11681;SDS011;5897;42.640;23.310;2023-12-20T09:18:41;88.57;;;63.38;;
11681;SDS011;5897;42.640;23.310;2023-12-20T09:21:08;91.05;;;64.55;;
11681;SDS011;5897;42.640;23.310;2023-12-20T09:23:37;88.90;;;63.95;;
11681;SDS011;5897;42.640;23.310;2023-12-20T09:26:09;90.22;;;64.32;;
11681;SDS011;5897;42.640;23.310;2023-12-20T09:28:39;101.25;;;70.85;;
11681;SDS011;5897;42.640;23.310;2023-12-20T09:31:06;81.97;;;61.47;;
11681;SDS011;5897;42.640;23.310;2023-12-20T09:33:37;77.80;;;58.58;;
11681;SDS011;5897;42.640;23.310;2023-12-20T09:36:04;72.88;;;53.45;;
11681;SDS011;5897;42.640;23.310;2023-12-20T09:38:32;67.28;;;51.42;;
11681;SDS011;5897;42.640;23.310;2023-12-20T09:41:01;70.82;;;51.45;;
11681;SDS011;5897;42.640;23.310;2023-12-20T09:43:39;72.32;;;53.88;;
11681;SDS011;5897;42.640;23.310;2023-12-20T09:46:08;90.70;;;71.18;;
11681;SDS011;5897;42.640;23.310;2023-12-20T09:48:38;76.05;;;54.88;;
11681;SDS011;5897;42.640;23.310;2023-12-20T09:51:08;71.25;;;55.33;;
11681;SDS011;5897;42.640;23.310;2023-12-20T09:53:40;74.30;;;57.40;;
11681;SDS011;5897;42.640;23.310;2023-12-20T09:56:19;69.25;;;53.72;;
11681;SDS011;5897;42.640;23.310;2023-12-20T09:58:47;71.15;;;50.35;;
11681;SDS011;5897;42.640;23.310;2023-12-20T10:01:17;67.78;;;50.55;;
11681;SDS011;5897;42.640;23.310;2023-12-20T10:03:51;60.83;;;45.90;;
11681;SDS011;5897;42.640;23.310;2023-12-20T10:06:37;60.92;;;44.28;;
11681;SDS011;5897;42.640;23.310;2023-12-20T10:09:13;54.80;;;42.08;;
11681;SDS011;5897;42.640;23.310;2023-12-20T10:11:45;56.85;;;40.83;;
11681;SDS011;5897;42.640;23.310;2023-12-20T10:14:15;57.92;;;42.75;;
11681;SDS011;5897;42.640;23.310;2023-12-20T10:16:43;58.47;;;42.63;;
11681;SDS011;5897;42.640;23.310;2023-12-20T10:19:15;59.08;;;43.55;;
11681;SDS011;5897;42.640;23.310;2023-12-20T10:21:42;54.35;;;41.13;;
11681;SDS011;5897;42.640;23.310;2023-12-20T10:24:10;52.67;;;40.20;;
11681;SDS011;5897;42.640;23.310;2023-12-20T10:26:48;59.95;;;42.85;;
11681;SDS011;5897;42.640;23.310;2023-12-20T10:29:32;58.40;;;44.53;;
11681;SDS011;5897;42.640;23.310;2023-12-20T10:32:21;60.17;;;44.67;;
11681;SDS011;5897;42.640;23.310;2023-12-20T10:34:55;59.45;;;44.40;;
11681;SDS011;5897;42.640;23.310;2023-12-20T10:37:22;65.13;;;46.42;;
11681;SDS011;5897;42.640;23.310;2023-12-20T10:39:52;63.40;;;47.22;;
11681;SDS011;5897;42.640;23.310;2023-12-20T10:42:22;60.03;;;46.38;;
11681;SDS011;5897;42.640;23.310;2023-12-20T10:44:59;66.50;;;48.42;;
11681;SDS011;5897;42.640;23.310;2023-12-20T10:47:31;61.85;;;44.92;;
11681;SDS011;5897;42.640;23.310;2023-12-20T10:50:03;63.45;;;46.95;;
11681;SDS011;5897;42.640;23.310;2023-12-20T10:52:35;66.45;;;46.50;;
11681;SDS011;5897;42.640;23.310;2023-12-20T10:55:08;65.35;;;48.13;;
11681;SDS011;5897;42.640;23.310;2023-12-20T10:57:39;68.22;;;49.42;;
11681;SDS011;5897;42.640;23.310;2023-12-20T11:00:19;68.72;;;51.00;;
11681;SDS011;5897;42.640;23.310;2023-12-20T11:02:49;68.97;;;51.80;;
11681;SDS011;5897;42.640;23.310;2023-12-20T11:05:21;68.70;;;52.25;;
11681;SDS011;5897;42.640;23.310;2023-12-20T11:07:58;62.10;;;49.55;;
11681;SDS011;5897;42.640;23.310;2023-12-20T11:10:34;64.53;;;48.03;;
11681;SDS011;5897;42.640;23.310;2023-12-20T11:13:12;62.50;;;47.47;;
11681;SDS011;5897;42.640;23.310;2023-12-20T11:15:47;58.40;;;47.30;;
11681;SDS011;5897;42.640;23.310;2023-12-20T11:18:16;58.35;;;46.80;;
11681;SDS011;5897;42.640;23.310;2023-12-20T11:20:46;60.25;;;47.78;;
11681;SDS011;5897;42.640;23.310;2023-12-20T11:23:20;57.80;;;45.33;;
11681;SDS011;5897;42.640;23.310;2023-12-20T11:25:51;64.40;;;51.22;;
11681;SDS011;5897;42.640;23.310;2023-12-20T11:28:20;62.75;;;46.08;;
11681;SDS011;5897;42.640;23.310;2023-12-20T11:30:55;58.72;;;43.33;;
11681;SDS011;5897;42.640;23.310;2023-12-20T11:33:26;54.13;;;42.28;;
11681;SDS011;5897;42.640;23.310;2023-12-20T11:36:14;60.45;;;43.15;;
11681;SDS011;5897;42.640;23.310;2023-12-20T11:38:56;57.28;;;43.25;;
11681;SDS011;5897;42.640;23.310;2023-12-20T11:41:28;55.80;;;41.85;;
11681;SDS011;5897;42.640;23.310;2023-12-20T11:43:58;55.05;;;41.67;;
11681;SDS011;5897;42.640;23.310;2023-12-20T11:46:35;56.28;;;42.55;;
11681;SDS011;5897;42.640;23.310;2023-12-20T11:49:05;55.10;;;43.63;;
11681;SDS011;5897;42.640;23.310;2023-12-20T11:51:31;56.17;;;42.20;;
11681;SDS011;5897;42.640;23.310;2023-12-20T11:54:03;58.90;;;44.25;;
11681;SDS011;5897;42.640;23.310;2023-12-20T11:56:32;59.80;;;43.40;;
11681;SDS011;5897;42.640;23.310;2023-12-20T11:59:03;61.42;;;45.88;;
11681;SDS011;5897;42.640;23.310;2023-12-20T12:01:35;60.65;;;45.33;;
11681;SDS011;5897;42.640;23.310;2023-12-20T12:04:03;58.97;;;45.40;;
11681;SDS011;5897;42.640;23.310;2023-12-20T12:06:35;60.00;;;45.67;;
11681;SDS011;5897;42.640;23.310;2023-12-20T12:09:03;58.13;;;45.10;;
11681;SDS011;5897;42.640;23.310;2023-12-20T12:11:36;60.10;;;45.75;;
11681;SDS011;5897;42.640;23.310;2023-12-20T12:14:02;63.90;;;45.15;;
11681;SDS011;5897;42.640;23.310;2023-12-20T12:16:36;60.85;;;44.17;;
11681;SDS011;5897;42.640;23.310;2023-12-20T12:19:06;59.47;;;46.17;;
11681;SDS011;5897;42.640;23.310;2023-12-20T12:21:32;61.67;;;46.95;;
11681;SDS011;5897;42.640;23.310;2023-12-20T12:24:06;59.03;;;44.60;;
11681;SDS011;5897;42.640;23.310;2023-12-20T12:26:33;61.85;;;45.17;;
11681;SDS011;5897;42.640;23.310;2023-12-20T12:29:00;63.28;;;47.15;;
11681;SDS011;5897;42.640;23.310;2023-12-20T12:31:26;59.05;;;46.50;;
11681;SDS011;5897;42.640;23.310;2023-12-20T12:33:54;64.97;;;45.42;;
11681;SDS011;5897;42.640;23.310;2023-12-20T12:36:22;57.53;;;41.40;;
11681;SDS011;5897;42.640;23.310;2023-12-20T12:38:49;57.85;;;41.72;;
11681;SDS011;5897;42.640;23.310;2023-12-20T12:41:16;49.97;;;40.35;;
11681;SDS011;5897;42.640;23.310;2023-12-20T12:43:42;53.40;;;41.03;;
11681;SDS011;5897;42.640;23.310;2023-12-20T12:46:09;55.30;;;42.65;;
11681;SDS011;5897;42.640;23.310;2023-12-20T12:48:35;53.65;;;41.60;;
11681;SDS011;5897;42.640;23.310;2023-12-20T12:51:04;55.22;;;41.55;;
11681;SDS011;5897;42.640;23.310;2023-12-20T12:53:30;58.30;;;42.22;;
11681;SDS011;5897;42.640;23.310;2023-12-20T12:55:56;58.22;;;42.55;;
11681;SDS011;5897;42.640;23.310;2023-12-20T12:58:26;58.97;;;41.50;;
11681;SDS011;5897;42.640;23.310;2023-12-20T13:00:54;54.05;;;41.08;;
11681;SDS011;5897;42.640;23.310;2023-12-20T13:03:21;58.22;;;43.53;;
11681;SDS011;5897;42.640;23.310;2023-12-20T13:05:47;59.80;;;42.70;;
11681;SDS011;5897;42.640;23.310;2023-12-20T13:08:19;59.53;;;44.75;;
11681;SDS011;5897;42.640;23.310;2023-12-20T13:10:45;62.75;;;45.25;;
11681;SDS011;5897;42.640;23.310;2023-12-20T13:13:17;62.65;;;45.95;;
11681;SDS011;5897;42.640;23.310;2023-12-20T13:15:51;64.80;;;47.17;;
11681;SDS011;5897;42.640;23.310;2023-12-20T13:18:20;71.15;;;49.30;;
11681;SDS011;5897;42.640;23.310;2023-12-20T13:20:48;75.32;;;50.55;;
11681;SDS011;5897;42.640;23.310;2023-12-20T13:23:15;72.70;;;51.53;;
11681;SDS011;5897;42.640;23.310;2023-12-20T13:25:45;72.55;;;51.05;;
11681;SDS011;5897;42.640;23.310;2023-12-20T13:28:15;71.15;;;48.63;;
11681;SDS011;5897;42.640;23.310;2023-12-20T13:30:45;65.93;;;44.88;;
11681;SDS011;5897;42.640;23.310;2023-12-20T13:33:12;63.30;;;45.67;;
11681;SDS011;5897;42.640;23.310;2023-12-20T13:35:41;64.50;;;46.08;;
11681;SDS011;5897;42.640;23.310;2023-12-20T13:38:07;67.65;;;46.35;;
11681;SDS011;5897;42.640;23.310;2023-12-20T13:40:46;67.38;;;46.75;;
11681;SDS011;5897;42.640;23.310;2023-12-20T13:43:15;68.15;;;46.42;;
11681;SDS011;5897;42.640;23.310;2023-12-20T13:45:45;60.10;;;43.33;;
11681;SDS011;5897;42.640;23.310;2023-12-20T13:48:15;65.35;;;45.17;;
11681;SDS011;5897;42.640;23.310;2023-12-20T13:50:53;62.92;;;46.53;;
11681;SDS011;5897;42.640;23.310;2023-12-20T13:53:23;64.88;;;46.05;;
11681;SDS011;5897;42.640;23.310;2023-12-20T13:55:54;66.57;;;46.72;;
11681;SDS011;5897;42.640;23.310;2023-12-20T13:58:23;68.20;;;47.55;;
11681;SDS011;5897;42.640;23.310;2023-12-20T14:00:51;69.68;;;46.88;;
11681;SDS011;5897;42.640;23.310;2023-12-20T14:03:18;67.10;;;47.95;;
11681;SDS011;5897;42.640;23.310;2023-12-20T14:05:44;69.97;;;46.70;;
11681;SDS011;5897;42.640;23.310;2023-12-20T14:08:17;67.65;;;46.45;;
11681;SDS011;5897;42.640;23.310;2023-12-20T14:10:49;69.40;;;47.58;;
11681;SDS011;5897;42.640;23.310;2023-12-20T14:13:21;72.47;;;48.83;;
11681;SDS011;5897;42.640;23.310;2023-12-20T14:15:53;73.57;;;50.58;;
11681;SDS011;5897;42.640;23.310;2023-12-20T14:18:23;79.07;;;51.45;;
11681;SDS011;5897;42.640;23.310;2023-12-20T14:20:53;83.07;;;55.13;;
11681;SDS011;5897;42.640;23.310;2023-12-20T14:23:22;89.65;;;55.85;;
11681;SDS011;5897;42.640;23.310;2023-12-20T14:25:51;85.45;;;54.17;;
11681;SDS011;5897;42.640;23.310;2023-12-20T14:28:17;93.22;;;57.35;;
11681;SDS011;5897;42.640;23.310;2023-12-20T14:30:49;89.63;;;57.05;;
11681;SDS011;5897;42.640;23.310;2023-12-20T14:33:18;89.72;;;56.25;;
11681;SDS011;5897;42.640;23.310;2023-12-20T14:35:51;88.35;;;54.47;;
11681;SDS011;5897;42.640;23.310;2023-12-20T14:38:20;83.57;;;56.05;;